Los Angeles, California
Traffic Map
Current Weather Conditions
Los Angeles, California
Clear
Clear
69°
Feels Like: 69°
Wind Chill: 69° Ceiling: Unl
Heat Index: 69° Visibility: 10mi
Dew Point: 64° Wind: 0mph
Humidity: 84% Direction: ° ()
Pressure: 29.86in Gusts: 0mph
Raw Report DataKCQT 270947Z AUTO 00000KT 10SM CLR 21/18 A2986 RMK AO2 SLP108 T02060178 $
Traffic Incident Summary
Active as of:
Severity:
Category:
InformationThere was an issue retrieving the traffic information for this location. Please try a different location or try again shortly.
Advertisements
Track Severe Weather on mobile